createdAt,value
2022-11-20T00:01:14.622Z,-4.06
2022-11-20T00:03:44.666Z,-4.14
2022-11-20T00:06:14.549Z,-4.22
2022-11-20T00:08:43.012Z,-4.48
2022-11-20T00:11:15.786Z,-4.32
2022-11-20T00:13:44.580Z,-4.53
2022-11-20T00:16:14.122Z,-4.44
2022-11-20T00:18:43.358Z,-4.94
2022-11-20T00:21:14.613Z,-4.56
2022-11-20T00:23:43.338Z,-4.82
2022-11-20T00:26:12.703Z,-4.69
2022-11-20T00:28:41.502Z,-4.82
2022-11-20T00:31:11.330Z,-4.55
2022-11-20T00:33:39.660Z,-4.68
2022-11-20T00:36:10.246Z,-4.45
2022-11-20T00:38:39.978Z,-4.38
2022-11-20T00:41:09.240Z,-4.57
2022-11-20T00:43:37.819Z,-4.76
2022-11-20T00:46:08.473Z,-4.48
2022-11-20T00:48:37.034Z,-4.82
2022-11-20T00:51:05.720Z,-4.78
2022-11-20T00:53:34.118Z,-5.00
2022-11-20T00:56:05.436Z,-4.74
2022-11-20T00:58:34.834Z,-5.02
2022-11-20T01:01:03.553Z,-5.01
2022-11-20T01:03:33.328Z,-4.78
2022-11-20T01:06:05.799Z,-4.73
2022-11-20T01:08:35.191Z,-4.98
2022-11-20T01:11:06.798Z,-4.82
2022-11-20T01:13:42.224Z,-4.99
2022-11-20T01:16:11.821Z,-4.87
2022-11-20T01:18:42.874Z,-4.85
2022-11-20T01:21:13.229Z,-4.88
2022-11-20T01:23:42.695Z,-4.59
2022-11-20T01:26:14.654Z,-4.82
2022-11-20T01:28:43.606Z,-5.11
2022-11-20T01:31:16.455Z,-4.81
2022-11-20T01:33:45.874Z,-4.86
2022-11-20T01:36:15.003Z,-5.10
2022-11-20T01:38:43.512Z,-5.24
2022-11-20T01:41:34.524Z,-4.92
2022-11-20T01:44:03.241Z,-5.06
2022-11-20T01:46:31.339Z,-5.30
2022-11-20T01:49:03.298Z,-5.18
2022-11-20T01:51:35.849Z,-5.19
2022-11-20T01:54:07.603Z,-5.12
2022-11-20T01:56:39.356Z,-5.06
2022-11-20T01:59:09.692Z,-5.18
2022-11-20T02:01:38.003Z,-5.34
2022-11-20T02:04:06.544Z,-5.37
2022-11-20T02:06:38.209Z,-5.08
2022-11-20T02:09:06.532Z,-5.57
2022-11-20T02:11:34.599Z,-5.51
2022-11-20T02:14:03.367Z,-5.16
2022-11-20T02:16:34.670Z,-5.16
2022-11-20T02:19:04.926Z,-5.21
2022-11-20T02:21:37.478Z,-5.16
2022-11-20T02:24:10.297Z,-5.09
2022-11-20T02:26:44.379Z,-5.16
2022-11-20T02:29:12.954Z,-5.72
2022-11-20T02:31:43.679Z,-5.40
2022-11-20T02:34:11.972Z,-5.74
2022-11-20T02:36:41.775Z,-5.49
2022-11-20T02:39:12.152Z,-5.49
2022-11-20T02:41:40.535Z,-5.72
2022-11-20T02:44:08.985Z,-5.76
2022-11-20T02:46:37.304Z,-5.88
2022-11-20T02:49:06.861Z,-5.68
2022-11-20T02:51:35.039Z,-5.93
2022-11-20T02:54:03.562Z,-5.93
2022-11-20T02:56:33.346Z,-5.61
2022-11-20T02:59:01.780Z,-5.89
2022-11-20T03:01:29.961Z,-5.87
2022-11-20T03:03:58.496Z,-5.91
2022-11-20T03:06:26.676Z,-5.87
2022-11-20T03:08:55.140Z,-5.95
2022-11-20T03:11:23.469Z,-5.85
2022-11-20T07:34:04.709Z,7.06
2022-11-20T07:36:32.780Z,7.09
2022-11-20T07:39:01.121Z,7.43
2022-11-20T07:41:30.167Z,7.63
2022-11-20T07:43:58.539Z,7.93
2022-11-20T07:46:26.816Z,8.34
2022-11-20T07:48:55.688Z,8.70
2022-11-20T07:51:25.011Z,8.97
2022-11-20T07:53:53.863Z,8.54
2022-11-20T07:56:21.871Z,8.77
2022-11-20T07:58:50.381Z,8.96
2022-11-20T08:01:18.488Z,8.82
2022-11-20T08:03:46.993Z,8.27
2022-11-20T08:06:15.815Z,7.19
2022-11-20T08:08:45.692Z,6.45
2022-11-20T08:11:31.128Z,5.94
2022-11-20T08:14:14.603Z,4.98
2022-11-20T08:16:43.141Z,4.10
2022-11-20T08:19:11.790Z,3.66
2022-11-20T08:21:40.057Z,3.66
2022-11-20T08:24:10.643Z,3.71
2022-11-20T08:26:40.008Z,3.37
2022-11-20T08:29:08.769Z,3.21
2022-11-20T08:31:37.204Z,3.12
2022-11-20T08:34:25.575Z,2.86
2022-11-20T08:36:53.684Z,2.53
2022-11-20T08:39:23.666Z,2.44
2022-11-20T08:41:51.986Z,1.89
2022-11-20T08:44:20.309Z,1.53
2022-11-20T08:46:48.307Z,1.28
2022-11-20T08:49:17.165Z,1.11
2022-11-20T08:51:46.090Z,0.93
2022-11-20T08:54:14.604Z,1.10
2022-11-20T08:56:44.002Z,1.40
2022-11-20T08:59:50.682Z,1.31
2022-11-20T09:02:00.540Z,1.37
2022-11-20T09:04:28.861Z,1.48
2022-11-20T09:06:56.938Z,1.54
2022-11-20T09:09:25.807Z,1.55
2022-11-20T09:11:55.553Z,1.89
2022-11-20T09:14:25.879Z,1.84
2022-11-20T09:16:53.970Z,2.06
2022-11-20T09:19:36.557Z,2.19
2022-11-20T09:22:04.769Z,2.49
2022-11-20T09:24:33.064Z,2.82
2022-11-20T09:27:05.771Z,3.53
2022-11-20T09:29:34.246Z,3.18
2022-11-20T09:32:02.311Z,3.15
2022-11-20T09:34:30.703Z,2.80
2022-11-20T09:37:01.578Z,2.80
2022-11-20T09:39:32.911Z,2.74
2022-11-20T09:42:13.841Z,3.12
2022-11-20T09:44:54.464Z,2.90
2022-11-20T09:47:30.735Z,2.80
2022-11-20T09:50:12.891Z,2.76
2022-11-20T09:52:48.466Z,2.45
2022-11-20T09:55:17.254Z,2.40
2022-11-20T09:57:48.575Z,2.46
2022-11-20T10:00:17.805Z,2.33
2022-11-20T10:02:50.291Z,2.49
2022-11-20T10:05:21.239Z,2.68
2022-11-20T10:07:56.464Z,2.78
2022-11-20T10:10:32.775Z,2.96
2022-11-20T10:13:13.039Z,3.15
2022-11-20T10:15:49.892Z,2.84
2022-11-20T10:18:27.540Z,2.82
2022-11-20T10:21:00.471Z,2.72
2022-11-20T10:23:48.615Z,2.68
2022-11-20T10:26:21.213Z,2.63
2022-11-20T10:29:21.007Z,2.60
2022-11-20T10:31:55.885Z,2.42
2022-11-20T10:34:28.111Z,2.33
2022-11-20T10:36:58.211Z,2.95
2022-11-20T10:39:33.547Z,4.02
2022-11-20T10:42:01.944Z,4.20
2022-11-20T10:44:52.503Z,4.62
2022-11-20T10:47:24.961Z,4.22
2022-11-20T10:49:55.399Z,4.54
2022-11-20T10:52:29.388Z,4.53
2022-11-20T10:55:02.221Z,4.26
2022-11-20T10:57:44.257Z,4.37
2022-11-20T11:00:15.335Z,3.89
2022-11-20T11:02:45.724Z,3.51
2022-11-20T11:05:33.534Z,3.24
2022-11-20T11:08:01.878Z,2.79
2022-11-20T11:10:35.346Z,2.99
2022-11-20T11:13:03.717Z,2.68
2022-11-20T11:15:40.288Z,3.81
2022-11-20T11:18:11.175Z,4.62
2022-11-20T11:20:39.966Z,5.58
2022-11-20T11:23:29.113Z,8.14
2022-11-20T11:26:00.708Z,9.66
2022-11-20T11:28:29.552Z,9.85
2022-11-20T11:30:59.091Z,9.68
2022-11-20T11:33:28.786Z,8.74
2022-11-20T11:35:59.297Z,7.60
2022-11-20T11:38:31.969Z,6.81
2022-11-20T11:41:00.181Z,5.68
2022-11-20T11:43:49.599Z,5.74
2022-11-20T11:46:28.733Z,5.49
2022-11-20T11:49:00.722Z,4.88
2022-11-20T11:51:32.703Z,4.83
2022-11-20T11:54:01.616Z,4.28
2022-11-20T11:56:30.583Z,3.99
2022-11-20T11:59:01.675Z,3.95
2022-11-20T12:01:35.305Z,3.79
2022-11-20T12:04:07.405Z,3.25
2022-11-20T12:06:38.143Z,2.94
2022-11-20T12:09:07.862Z,2.86
2022-11-20T12:11:41.235Z,2.81
2022-11-20T12:14:15.840Z,2.89
2022-11-20T12:16:45.428Z,2.94
2022-11-20T12:19:15.735Z,2.81
2022-11-20T12:21:58.476Z,3.33
2022-11-20T12:24:49.298Z,3.64
2022-11-20T12:27:40.508Z,3.81
2022-11-20T12:30:11.421Z,3.76
2022-11-20T12:32:56.414Z,4.04
2022-11-20T12:35:44.920Z,3.84
2022-11-20T12:38:48.644Z,3.78
2022-11-20T12:41:37.579Z,3.67
2022-11-20T12:44:30.729Z,3.41
2022-11-20T12:47:10.999Z,3.20
2022-11-20T12:49:44.520Z,2.90
2022-11-20T12:52:23.269Z,2.78
2022-11-20T12:55:10.421Z,2.71
2022-11-20T12:57:46.016Z,2.52
2022-11-20T13:00:17.414Z,2.25
2022-11-20T13:03:15.976Z,2.49
2022-11-20T13:05:53.693Z,2.18
2022-11-20T13:08:24.877Z,1.88
2022-11-20T13:10:59.678Z,2.19
2022-11-20T13:13:33.548Z,2.00
2022-11-20T13:16:06.481Z,1.97
2022-11-20T13:18:48.629Z,2.12
2022-11-20T13:21:37.131Z,2.17
2022-11-20T13:24:09.095Z,2.22
2022-11-20T13:26:37.206Z,1.86
2022-11-20T13:29:11.900Z,2.11
2022-11-20T13:31:43.844Z,1.59
2022-11-20T13:34:15.126Z,1.60
2022-11-20T13:36:53.601Z,1.63
2022-11-20T13:39:28.457Z,1.63
2022-11-20T13:41:57.948Z,1.27
2022-11-20T13:44:29.000Z,1.26
2022-11-20T13:46:57.133Z,0.98
2022-11-20T13:49:28.523Z,1.46
2022-11-20T13:52:08.446Z,1.39
2022-11-20T13:54:55.193Z,1.46
2022-11-20T13:57:37.959Z,1.40
2022-11-20T14:00:21.204Z,1.49
2022-11-20T14:03:01.919Z,1.25
2022-11-20T14:05:31.098Z,0.95
2022-11-20T14:08:00.950Z,1.01
2022-11-20T14:10:32.312Z,0.98
2022-11-20T14:13:00.882Z,0.66
2022-11-20T14:15:32.128Z,1.05
2022-11-20T14:18:01.050Z,0.83
2022-11-20T14:20:32.409Z,0.83
2022-11-20T14:23:01.902Z,0.80
2022-11-20T14:25:32.088Z,0.66
2022-11-20T14:28:02.214Z,0.96
2022-11-20T14:30:38.103Z,0.99
2022-11-20T14:33:06.348Z,0.82
2022-11-20T14:35:46.409Z,1.08
2022-11-20T14:38:17.724Z,1.10
2022-11-20T14:40:46.399Z,0.77
2022-11-20T14:43:20.627Z,1.15
2022-11-20T14:45:55.249Z,1.05
2022-11-20T14:48:26.508Z,1.19
2022-11-20T14:50:54.812Z,0.84
2022-11-20T14:53:26.666Z,1.24
2022-11-20T14:56:00.261Z,1.29
2022-11-20T14:58:29.762Z,1.00
2022-11-20T15:00:59.112Z,0.96
2022-11-20T15:03:34.068Z,1.23
2022-11-20T15:06:02.854Z,0.81
2022-11-20T15:08:32.516Z,1.05
2022-11-20T15:11:01.050Z,0.75
2022-11-20T15:13:32.323Z,1.20
2022-11-20T15:16:01.576Z,0.94
2022-11-20T15:18:32.132Z,1.00
2022-11-20T15:21:03.867Z,1.15
2022-11-20T15:23:33.285Z,1.10
2022-11-20T15:26:01.687Z,0.83
2022-11-20T15:28:32.638Z,1.04
2022-11-20T15:31:01.170Z,1.61
2022-11-20T15:33:29.883Z,0.97
2022-11-20T15:35:58.688Z,1.16
2022-11-20T15:38:26.880Z,1.13
2022-11-20T15:40:56.646Z,1.34
2022-11-20T15:43:24.707Z,1.01
2022-11-20T15:45:55.597Z,1.20
2022-11-20T15:48:25.544Z,1.39
2022-11-20T15:50:56.908Z,1.41
2022-11-20T15:53:25.115Z,1.09
2022-11-20T15:55:53.564Z,1.07
2022-11-20T15:58:24.029Z,1.36
2022-11-20T16:00:52.766Z,1.08
2022-11-20T16:03:21.106Z,1.23
2022-11-20T16:05:49.522Z,1.18
2022-11-20T16:08:17.618Z,1.21
2022-11-20T16:10:46.021Z,1.12
2022-11-20T16:13:33.266Z,1.47
2022-11-20T16:16:06.534Z,1.30
2022-11-20T16:18:35.326Z,1.25
2022-11-20T16:21:04.193Z,1.22
2022-11-20T16:23:32.311Z,1.24
2022-11-20T16:26:00.720Z,1.30
2022-11-20T16:28:28.967Z,1.40
2022-11-20T16:30:57.457Z,1.39
2022-11-20T16:33:27.008Z,1.72
2022-11-20T16:35:55.416Z,1.41
2022-11-20T16:38:23.625Z,1.57
2022-11-20T16:40:52.005Z,1.48
2022-11-20T16:43:20.377Z,1.51
2022-11-20T16:45:48.841Z,1.55
2022-11-20T16:48:17.931Z,1.72
2022-11-20T16:50:52.524Z,1.97
2022-11-20T16:53:22.141Z,1.77
2022-11-20T16:55:50.819Z,1.52
2022-11-20T16:58:19.020Z,1.53
2022-11-20T17:00:51.595Z,1.46
2022-11-20T17:03:21.130Z,1.53
2022-11-20T17:05:51.017Z,1.40
2022-11-20T17:08:19.275Z,1.27
2022-11-20T17:10:47.834Z,1.24
2022-11-20T17:13:17.154Z,1.14
2022-11-20T17:15:45.479Z,1.01
2022-11-20T17:18:13.572Z,0.94
2022-11-20T17:20:41.948Z,0.91
2022-11-20T17:23:11.504Z,1.20
2022-11-20T17:25:39.982Z,0.96
2022-11-20T17:28:08.154Z,1.00
2022-11-20T17:30:36.526Z,0.96
2022-11-20T17:33:04.735Z,0.83
2022-11-20T17:35:33.081Z,0.67
2022-11-20T17:38:01.175Z,0.68
2022-11-20T17:40:32.111Z,1.10
2022-11-20T17:43:00.210Z,0.83
2022-11-20T17:45:28.649Z,0.74
2022-11-20T17:47:57.849Z,0.71
2022-11-20T17:50:26.651Z,0.83
2022-11-20T17:52:55.455Z,0.76
2022-11-20T17:55:24.076Z,0.63
2022-11-20T17:57:52.675Z,0.87
2022-11-20T18:00:21.264Z,0.57
2022-11-20T18:02:49.485Z,0.51
2022-11-20T18:05:18.135Z,0.57
2022-11-20T18:07:46.459Z,0.46
2022-11-20T18:10:15.056Z,0.54
2022-11-20T18:12:44.043Z,0.46
2022-11-20T18:15:13.982Z,0.69
2022-11-20T18:17:42.102Z,0.45
2022-11-20T18:20:28.753Z,0.55
2022-11-20T18:22:57.829Z,0.42
2022-11-20T18:25:26.341Z,0.42
2022-11-20T18:27:54.954Z,0.36
2022-11-20T18:30:25.126Z,0.55
2022-11-20T18:32:53.638Z,0.25
2022-11-20T18:35:22.417Z,0.28
2022-11-20T18:37:50.517Z,0.18
2022-11-20T18:40:19.021Z,0.21
2022-11-20T18:43:04.708Z,0.15
2022-11-20T18:45:34.688Z,0.39
2022-11-20T18:48:02.933Z,0.12
2022-11-20T18:50:31.437Z,0.18
2022-11-20T18:52:59.532Z,0.17
2022-11-20T18:55:27.980Z,0.28
2022-11-20T18:57:56.209Z,0.27
2022-11-20T19:00:24.951Z,0.35
2022-11-20T19:02:55.493Z,0.70
2022-11-20T19:05:23.984Z,0.30
2022-11-20T19:07:52.447Z,0.29
2022-11-20T19:10:21.314Z,0.38
2022-11-20T19:12:49.514Z,0.32
2022-11-20T19:15:17.926Z,0.33
2022-11-20T19:17:46.123Z,0.34
2022-11-20T19:20:15.996Z,0.53
2022-11-20T19:22:44.170Z,0.40
2022-11-20T19:25:12.661Z,0.33
2022-11-20T19:27:40.982Z,0.40
2022-11-20T19:30:10.735Z,0.60
2022-11-20T19:32:38.939Z,0.43
2022-11-20T19:35:07.915Z,0.55
2022-11-20T19:37:37.628Z,0.79
2022-11-20T19:40:07.054Z,0.77
2022-11-20T19:42:35.338Z,0.63
2022-11-20T19:45:03.715Z,0.79
2022-11-20T19:48:00.553Z,0.92
2022-11-20T19:50:20.368Z,1.03
2022-11-20T19:52:52.013Z,1.38
2022-11-20T19:55:24.112Z,1.22
2022-11-20T19:57:52.340Z,1.28
2022-11-20T20:00:28.093Z,1.28
2022-11-20T20:03:00.643Z,1.32
2022-11-20T20:05:29.025Z,1.30
2022-11-20T20:07:58.860Z,1.60
2022-11-20T20:10:27.323Z,1.27
2022-11-20T20:12:55.583Z,1.31
2022-11-20T20:15:24.100Z,1.22
2022-11-20T20:17:52.945Z,1.45
2022-11-20T20:20:22.944Z,1.55
2022-11-20T20:22:51.156Z,1.25
2022-11-20T20:25:21.040Z,1.56
2022-11-20T20:27:49.180Z,1.42
2022-11-20T20:30:17.682Z,1.50
2022-11-20T20:32:45.846Z,1.51
2022-11-20T20:35:14.257Z,1.52
2022-11-20T20:37:42.554Z,1.42
2022-11-20T20:40:15.103Z,1.76
2022-11-20T20:42:45.270Z,1.92
2022-11-20T20:45:12.695Z,1.76
2022-11-20T20:47:42.003Z,2.03
2022-11-20T20:50:11.661Z,1.99
2022-11-20T20:52:39.988Z,1.95
2022-11-20T20:55:08.914Z,2.04
2022-11-20T20:57:37.353Z,2.13
2022-11-20T21:00:09.049Z,2.40
2022-11-20T21:02:36.892Z,2.91
2022-11-20T21:05:05.907Z,2.26
2022-11-20T21:07:34.062Z,2.23
2022-11-20T21:10:02.477Z,2.20
2022-11-20T21:12:30.609Z,2.33
2022-11-20T21:14:58.923Z,2.27
2022-11-20T21:17:29.231Z,2.66
2022-11-20T21:19:57.730Z,2.43
2022-11-20T21:22:24.778Z,2.25
2022-11-20T21:24:53.171Z,2.33
2022-11-20T21:27:21.316Z,2.37
2022-11-20T21:29:49.884Z,2.46
2022-11-20T21:32:18.064Z,2.45
2022-11-20T21:34:47.889Z,2.85
2022-11-20T21:37:16.025Z,2.52
2022-11-20T21:39:50.799Z,2.56
2022-11-20T21:42:19.041Z,2.50
2022-11-20T21:44:47.960Z,2.75
2022-11-20T21:47:16.110Z,2.65
2022-11-20T21:49:44.436Z,2.70
2022-11-20T21:52:13.883Z,3.07
2022-11-20T21:54:42.250Z,2.72
2022-11-20T21:57:10.321Z,2.80
2022-11-20T21:59:38.667Z,2.90
2022-11-20T22:02:08.062Z,2.82
2022-11-20T22:04:36.547Z,2.92
2022-11-20T22:07:06.323Z,2.88
2022-11-20T22:09:36.266Z,3.21
2022-11-20T22:12:04.778Z,2.90
2022-11-20T22:14:32.252Z,2.93
2022-11-20T22:17:00.306Z,2.94
2022-11-20T22:19:28.710Z,2.97
2022-11-20T22:21:56.767Z,3.02
2022-11-20T22:24:25.447Z,3.06
2022-11-20T22:26:55.242Z,3.41
2022-11-20T22:29:23.561Z,3.03
2022-11-20T22:31:53.164Z,3.29
2022-11-20T22:34:21.928Z,3.14
2022-11-20T22:36:50.126Z,2.97
2022-11-20T22:39:18.793Z,3.18
2022-11-20T22:41:46.890Z,3.03
2022-11-20T22:44:17.385Z,3.32
2022-11-20T22:46:45.500Z,2.96
2022-11-20T22:49:13.981Z,3.09
2022-11-20T22:51:43.079Z,3.28
2022-11-20T22:54:12.750Z,3.37
2022-11-20T22:56:41.310Z,3.22
2022-11-20T22:59:09.811Z,3.12
2022-11-20T23:01:39.549Z,3.42
2022-11-20T23:04:10.702Z,3.32
2022-11-20T23:06:39.131Z,2.96
2022-11-20T23:09:09.449Z,3.19
2022-11-20T23:11:37.686Z,3.09
2022-11-20T23:14:07.360Z,3.19
2022-11-20T23:16:36.179Z,3.19
2022-11-20T23:19:07.676Z,3.35
2022-11-20T23:21:36.219Z,3.19
2022-11-20T23:24:05.217Z,3.09
2022-11-20T23:26:35.508Z,3.33
2022-11-20T23:29:05.304Z,3.28
2022-11-20T23:31:34.257Z,3.23
2022-11-20T23:34:02.876Z,3.07
2022-11-20T23:36:32.381Z,3.31
2022-11-20T23:39:00.754Z,3.01
2022-11-20T23:41:28.744Z,2.92
2022-11-20T23:43:57.175Z,3.03
2022-11-20T23:46:25.268Z,2.91
2022-11-20T23:48:53.624Z,2.99
2022-11-20T23:51:21.625Z,2.96
2022-11-20T23:53:51.383Z,3.31
2022-11-20T23:56:20.863Z,2.98
2022-11-20T23:58:49.305Z,2.87
